logo
Rechercher aéroport 
image banner adimage banner adimage banner ad
image banner ad

O24 - Lee Vining

Situé à Lee Vining, United States

ICAO - O24, IATA -

Données fournies par Airmate  

Information générale

Coordonnées: N37°57'28" W119°6'21"
Élévation : 6802 feet MSL.
Variation magnétique : 15° East
Voir autres Aéroports à California

Données opérationnelles

Special qualification required
Heure actuelle UTC:
Heure actuelle locale:
Météo à : KMMH - Mammoth Yosemite ( 44 km )
METAR: KMMH 281156Z AUTO 34003KT 10SM CLR 08/M03 A3035 RMK AO2
TAF: KMMH 281120Z 2812/2912 VRB05KT P6SM FEW200 FM281800 22009G18KT P6SM FEW200 FM282100 25018G28KT P6SM FEW090 SCT200 FM290400 23010KT P6SM SCT200 WS020/22035KT
Voir NOTAMs / SUP AIP / TFR affectant cet aéroport [VIEW]
Fréquences de communication: [VIEW]

Pistes:

Identifiant RWYQFULongueur (ft)Largeur (ft)SurfaceLDA (ft)
15162°392060ASPH
33342°392060ASPH

Coordonnées de l'aéroport

Adresse: Lee Vining United States

Vue satellite de O24